Date,TemperatureHighF,TemperatureAvgF,TemperatureLowF,DewpointHighF,DewpointAvgF,DewpointLowF,HumidityHigh,HumidityAvg,HumidityLow,PressureMaxIn,PressureMinIn,WindSpeedMaxMPH,WindSpeedAvgMPH,GustSpeedMaxMPH,PrecipitationSumIn
2013-3-1,28,25,23,26,20,18,90,82,78,30.09,29.94,21,7,21,0.00
2013-3-2,25,23,21,20,18,16,86,81,76,30.09,30.03,16,4,16,0.00
2013-3-3,25,20,13,18,14,8,82,77,72,30.06,30.00,16,4,16,0.05
2013-3-4,35,21,8,25,14,2,84,73,66,30.18,30.03,15,2,15,0.03
2013-3-5,37,25,12,28,20,7,92,78,68,30.15,29.88,18,3,18,18.69
2013-3-6,42,33,25,32,27,21,91,80,70,30.21,29.88,18,4,18,0.13
2013-3-7,34,31,22,32,26,16,96,82,74,30.39,30.18,18,2,18,0.00
2013-3-8,46,31,19,36,24,14,92,76,66,30.50,30.39,13,1,13,0.00
2013-3-9,45,34,26,35,30,25,100,84,69,30.44,30.09,20,4,20,0.00
2013-3-10,60,47,36,49,39,31,80,72,66,30.09,29.82,22,4,22,55.27
2013-3-11,53,49,37,50,46,32,100,90,69,29.85,29.50,144,8,144,50.81
2013-3-12,37,34,30,32,28,23,82,78,72,29.94,29.68,143,6,143,50.81
2013-3-13,32,27,23,27,21,16,91,76,66,30.15,29.82,32,7,32,50.85
2013-3-14,39,28,20,28,20,14,77,70,66,30.24,30.06,143,4,143,50.85
2013-3-15,38,33,29,32,27,21,92,78,69,30.06,29.85,16,4,16,0.00
2013-3-16,32,28,25,28,25,19,100,87,74,30.03,29.79,15,3,15,0.00
2013-3-17,34,24,17,24,17,11,80,73,66,30.30,30.00,26,4,26,50.85
2013-3-18,36,28,17,36,25,0,100,87,75,30.21,29.59,22,6,22,0.00
2013-3-19,35,26,22,35,21,16,100,80,72,29.91,29.62,33,9,33,0.00
2013-3-20,30,23,16,21,15,9,76,72,66,29.94,29.88,22,5,22,0.00
2013-3-21,30,23,13,24,17,7,84,79,74,29.94,29.82,22,5,22,0.00
2013-3-22,35,28,23,26,20,17,77,73,70,30.03,29.91,22,5,22,0.04
2013-3-23,35,30,25,26,23,18,80,74,70,30.12,30.03,13,2,13,0.08
2013-3-24,36,28,20,27,22,16,88,78,68,30.09,29.71,27,4,27,0.00
2013-3-25,38,33,30,29,26,23,78,74,70,29.94,29.62,36,7,36,0.00
2013-3-26,42,35,32,33,28,26,80,76,68,30.09,29.94,24,6,24,0.00
2013-3-27,45,36,29,35,28,23,80,72,66,30.21,30.09,28,6,28,0.00
2013-3-28,50,39,31,39,30,23,76,70,64,30.30,30.18,22,5,22,0.00
2013-3-29,52,39,28,40,29,20,73,68,64,30.33,30.18,16,2,16,0.00
2013-3-30,56,41,24,44,31,17,78,68,64,30.24,29.94,22,3,22,0.00
2013-3-31,57,45,36,45,36,28,78,71,64,29.97,29.65,22,4,22,0.00